Time,TemperatureF,DewpointF,PressureIn,WindDirection,WindDirectionDegrees,WindSpeedMPH,WindSpeedGustMPH,Humidity,HourlyPrecipIn,Conditions,Clouds,dailyrainin,SoftwareType,DateUTC
2013-02-16 01:00:00,23.0,20.0,30.76,WNW,300,8.0,-999.0,88,-99.99,,,-99.99,,2013-02-16 06:00:00,
2013-02-16 01:21:00,23.0,20.0,30.76,WNW,300,8.0,-999.0,88,-99.99,,,-99.99,,2013-02-16 06:21:00,
2013-02-16 01:32:00,23.0,20.0,30.76,WNW,300,8.0,-999.0,88,-99.99,,,-99.99,,2013-02-16 06:32:00,
2013-02-16 01:41:00,23.0,20.0,30.76,WNW,300,8.0,-999.0,88,-99.99,,,-99.99,,2013-02-16 06:41:00,
2013-02-16 01:51:00,23.0,20.0,30.76,WNW,300,8.0,-999.0,88,-99.99,,,-99.99,,2013-02-16 06:51:00,
2013-02-16 04:00:00,21.0,16.0,30.75,WNW,290,6.0,-999.0,78,-99.99,,,-99.99,,2013-02-16 09:00:00,
2013-02-16 04:21:00,21.0,16.0,30.75,WNW,290,6.0,-999.0,78,-99.99,,,-99.99,,2013-02-16 09:21:00,
2013-02-16 04:31:00,21.0,16.0,30.75,WNW,290,6.0,-999.0,78,-99.99,,,-99.99,,2013-02-16 09:31:00,
2013-02-16 04:42:00,21.0,16.0,30.75,WNW,290,6.0,-999.0,78,-99.99,,,-99.99,,2013-02-16 09:42:00,
2013-02-16 04:51:00,21.0,16.0,30.75,WNW,290,6.0,-999.0,78,-99.99,,,-99.99,,2013-02-16 09:51:00,
2013-02-16 07:00:00,18.0,13.0,30.74,West,270,5.0,-999.0,83,-99.99,,,-99.99,,2013-02-16 12:00:00,
2013-02-16 07:21:00,18.0,13.0,30.74,West,270,5.0,-999.0,83,-99.99,,,-99.99,,2013-02-16 12:21:00,
2013-02-16 07:32:00,18.0,13.0,30.74,West,270,5.0,-999.0,83,-99.99,,,-99.99,,2013-02-16 12:32:00,
2013-02-16 07:42:00,18.0,13.0,30.74,West,270,5.0,-999.0,83,-99.99,,,-99.99,,2013-02-16 12:42:00,
2013-02-16 07:52:00,18.0,13.0,30.74,West,270,5.0,-999.0,83,-99.99,,,-99.99,,2013-02-16 12:52:00,
2013-02-16 09:00:00,20.0,15.0,-100.00,SSE,150,2.0,-999.0,79,-99.99,,,-99.99,,2013-02-16 14:00:00,
2013-02-16 09:21:00,20.0,15.0,-100.00,SSE,150,2.0,-999.0,79,-99.99,,,-99.99,,2013-02-16 14:21:00,
2013-02-16 09:32:00,20.0,15.0,-100.00,SSE,150,2.0,-999.0,79,-99.99,,,-99.99,,2013-02-16 14:32:00,
2013-02-16 09:41:00,20.0,15.0,-100.00,SSE,150,2.0,-999.0,79,-99.99,,,-99.99,,2013-02-16 14:41:00,
2013-02-16 09:51:00,20.0,15.0,-100.00,SSE,150,2.0,-999.0,79,-99.99,,,-99.99,,2013-02-16 14:51:00,
2013-02-16 10:00:00,23.0,13.0,30.73,West,270,5.0,-999.0,64,-99.99,,,-99.99,,2013-02-16 15:00:00,
2013-02-16 10:21:00,23.0,13.0,30.73,West,270,5.0,-999.0,64,-99.99,,,-99.99,,2013-02-16 15:21:00,
2013-02-16 10:31:00,23.0,13.0,30.73,West,270,5.0,-999.0,64,-99.99,,,-99.99,,2013-02-16 15:31:00,
2013-02-16 10:41:00,23.0,13.0,30.73,West,270,5.0,-999.0,64,-99.99,,,-99.99,,2013-02-16 15:41:00,
2013-02-16 10:51:00,23.0,13.0,30.73,West,270,5.0,-999.0,64,-99.99,,,-99.99,,2013-02-16 15:51:00,
2013-02-16 13:00:00,24.0,19.0,30.68,NW,320,9.0,-999.0,82,-99.99,,,-99.99,,2013-02-16 18:00:00,
2013-02-16 13:21:00,24.0,19.0,30.68,NW,320,9.0,-999.0,82,-99.99,,,-99.99,,2013-02-16 18:21:00,
2013-02-16 13:32:00,24.0,19.0,30.68,NW,320,9.0,-999.0,82,-99.99,,,-99.99,,2013-02-16 18:32:00,
2013-02-16 13:41:00,24.0,19.0,30.68,NW,320,9.0,-999.0,82,-99.99,,,-99.99,,2013-02-16 18:41:00,
2013-02-16 13:51:00,24.0,19.0,30.68,NW,320,9.0,-999.0,82,-99.99,,,-99.99,,2013-02-16 18:51:00,
2013-02-16 16:00:00,26.0,16.0,30.65,SSW,210,7.0,-999.0,65,-99.99,,,-99.99,,2013-02-16 21:00:00,
2013-02-16 16:21:00,26.0,16.0,30.65,SSW,210,7.0,-999.0,65,-99.99,,,-99.99,,2013-02-16 21:21:00,
2013-02-16 16:31:00,26.0,16.0,30.65,SSW,210,7.0,-999.0,65,-99.99,,,-99.99,,2013-02-16 21:31:00,
2013-02-16 16:41:00,26.0,16.0,30.65,SSW,210,7.0,-999.0,65,-99.99,,,-99.99,,2013-02-16 21:41:00,
2013-02-16 16:51:00,26.0,16.0,30.65,SSW,210,7.0,-999.0,65,-99.99,,,-99.99,,2013-02-16 21:51:00,
2013-02-16 19:00:00,22.0,19.0,30.69,NNW,340,16.0,-999.0,85,-99.99,,,-99.99,,2013-02-17 00:00:00,
2013-02-16 19:21:00,22.0,19.0,30.69,NNW,340,16.0,-999.0,85,-99.99,,,-99.99,,2013-02-17 00:21:00,
2013-02-16 19:31:00,22.0,19.0,30.69,NNW,340,16.0,-999.0,85,-99.99,,,-99.99,,2013-02-17 00:31:00,
2013-02-16 19:41:00,22.0,19.0,30.69,NNW,340,16.0,-999.0,85,-99.99,,,-99.99,,2013-02-17 00:41:00,
2013-02-16 19:51:00,22.0,19.0,30.69,NNW,340,16.0,-999.0,85,-99.99,,,-99.99,,2013-02-17 00:51:00,
2013-02-16 21:00:00,24.0,14.0,30.08,WNW,300,6.0,-999.0,63,-99.99,,,-99.99,,2013-02-17 02:00:00,
2013-02-16 21:21:00,24.0,14.0,30.08,WNW,300,6.0,-999.0,63,-99.99,,,-99.99,,2013-02-17 02:21:00,
2013-02-16 21:31:00,24.0,14.0,30.08,WNW,300,6.0,-999.0,63,-99.99,,,-99.99,,2013-02-17 02:31:00,
2013-02-16 21:41:00,24.0,14.0,30.08,WNW,300,6.0,-999.0,63,-99.99,,,-99.99,,2013-02-17 02:41:00,
2013-02-16 21:51:00,24.0,14.0,30.08,WNW,300,6.0,-999.0,63,-99.99,,,-99.99,,2013-02-17 02:51:00,
2013-02-16 22:00:00,20.0,13.0,-100.00,WNW,300,8.0,-999.0,72,-99.99,,,-99.99,,2013-02-17 03:00:00,
2013-02-16 22:21:00,20.0,13.0,-100.00,WNW,300,8.0,-999.0,72,-99.99,,,-99.99,,2013-02-17 03:21:00,
2013-02-16 22:31:00,20.0,13.0,-100.00,WNW,300,8.0,-999.0,72,-99.99,,,-99.99,,2013-02-17 03:31:00,
2013-02-16 22:41:00,20.0,13.0,-100.00,WNW,300,8.0,-999.0,72,-99.99,,,-99.99,,2013-02-17 03:41:00,
2013-02-16 22:51:00,20.0,13.0,-100.00,WNW,300,8.0,-999.0,72,-99.99,,,-99.99,,2013-02-17 03:51:00,
2013-02-16 23:00:00,20.0,13.0,-100.00,WNW,300,8.0,-999.0,74,-99.99,,,-99.99,,2013-02-17 04:00:00,
2013-02-16 23:21:00,20.0,13.0,-100.00,WNW,300,8.0,-999.0,74,-99.99,,,-99.99,,2013-02-17 04:21:00,
2013-02-16 23:31:00,20.0,13.0,-100.00,WNW,300,8.0,-999.0,74,-99.99,,,-99.99,,2013-02-17 04:31:00,
2013-02-16 23:41:00,20.0,13.0,-100.00,WNW,300,8.0,-999.0,74,-99.99,,,-99.99,,2013-02-17 04:41:00,
2013-02-16 23:51:00,20.0,13.0,-100.00,WNW,300,8.0,-999.0,74,-99.99,,,-99.99,,2013-02-17 04:51:00,